createdAt,value
2022-08-27T00:01:43.050Z,18.00
2022-08-27T00:04:10.519Z,18.00
2022-08-27T00:06:37.908Z,17.90
2022-08-27T00:09:05.521Z,17.80
2022-08-27T00:11:32.963Z,17.80
2022-08-27T00:14:00.727Z,17.80
2022-08-27T00:16:28.398Z,17.70
2022-08-27T00:18:57.659Z,17.70
2022-08-27T00:21:25.507Z,17.70
2022-08-27T00:23:53.295Z,17.70
2022-08-27T00:26:20.897Z,17.70
2022-08-27T00:28:48.423Z,17.70
2022-08-27T00:31:15.820Z,17.60
2022-08-27T00:33:43.961Z,17.60
2022-08-27T00:36:13.056Z,17.70
2022-08-27T00:38:41.563Z,17.60
2022-08-27T00:41:11.546Z,17.60
2022-08-27T00:43:49.217Z,17.70
2022-08-27T00:46:38.705Z,17.70
2022-08-27T00:49:11.314Z,17.70
2022-08-27T00:51:39.481Z,17.70
2022-08-27T00:54:09.376Z,17.70
2022-08-27T00:56:45.585Z,17.70
2022-08-27T00:59:21.046Z,17.70
2022-08-27T01:02:06.911Z,17.70
2022-08-27T01:04:37.163Z,17.70
2022-08-27T01:07:05.983Z,17.70
2022-08-27T01:09:34.152Z,17.70
2022-08-27T01:12:01.813Z,17.70
2022-08-27T01:14:29.254Z,17.70
2022-08-27T01:16:58.517Z,17.70
2022-08-27T01:19:33.911Z,17.70
2022-08-27T01:22:30.774Z,17.60
2022-08-27T01:25:01.779Z,17.70
2022-08-27T01:27:34.181Z,17.70
2022-08-27T01:30:02.540Z,17.70
2022-08-27T01:32:32.703Z,17.70
2022-08-27T01:35:01.454Z,17.70
2022-08-27T01:37:29.922Z,17.70
2022-08-27T01:40:01.141Z,17.70
2022-08-27T01:42:41.793Z,17.70
2022-08-27T01:45:15.899Z,17.70
2022-08-27T01:47:43.436Z,17.60
2022-08-27T01:50:18.679Z,17.60
2022-08-27T01:52:46.818Z,17.60
2022-08-27T01:55:17.195Z,17.60
2022-08-27T01:57:44.995Z,17.60
2022-08-27T02:00:23.595Z,17.60
2022-08-27T02:02:51.608Z,17.60
2022-08-27T02:05:19.289Z,17.60
2022-08-27T02:07:47.123Z,17.60
2022-08-27T02:10:17.799Z,17.60
2022-08-27T02:12:45.750Z,17.60
2022-08-27T02:15:13.861Z,17.60
2022-08-27T02:17:41.238Z,17.60
2022-08-27T02:20:10.818Z,17.60
2022-08-27T02:22:38.826Z,17.60
2022-08-27T02:25:10.403Z,17.60
2022-08-27T02:27:38.483Z,17.60
2022-08-27T02:30:06.685Z,17.60
2022-08-27T02:32:34.374Z,17.60
2022-08-27T02:35:03.606Z,17.60
2022-08-27T02:37:31.416Z,17.60
2022-08-27T02:39:58.857Z,17.60
2022-08-27T02:42:26.240Z,17.60
2022-08-27T02:44:54.921Z,17.60
2022-08-27T02:47:22.272Z,17.60
2022-08-27T02:49:49.641Z,17.60
2022-08-27T02:52:17.621Z,17.60
2022-08-27T02:54:53.492Z,17.50
2022-08-27T02:57:22.169Z,17.60
2022-08-27T02:59:50.933Z,17.60
2022-08-27T03:02:19.385Z,17.60
2022-08-27T03:04:47.769Z,17.60
2022-08-27T03:07:18.987Z,17.60
2022-08-27T03:09:46.511Z,17.50
2022-08-27T03:12:13.899Z,17.60
2022-08-27T03:14:41.644Z,17.60
2022-08-27T03:17:27.740Z,17.60
2022-08-27T03:19:55.529Z,17.50
2022-08-27T03:22:22.891Z,17.50
2022-08-27T03:24:50.317Z,17.50
2022-08-27T03:27:17.691Z,17.50
2022-08-27T03:29:44.996Z,17.50
2022-08-27T03:32:12.441Z,17.40
2022-08-27T03:34:39.903Z,17.40
2022-08-27T03:37:07.258Z,17.40
2022-08-27T03:39:34.599Z,17.40
2022-08-27T03:42:02.026Z,17.40
2022-08-27T03:44:29.449Z,17.40
2022-08-27T03:46:57.267Z,17.40
2022-08-27T03:49:24.682Z,17.30
2022-08-27T03:51:54.107Z,17.40
2022-08-27T03:54:21.654Z,17.30
2022-08-27T03:56:49.194Z,17.30
2022-08-27T03:59:16.611Z,17.30
2022-08-27T04:01:45.265Z,17.30
2022-08-27T04:04:13.128Z,17.30
2022-08-27T04:06:41.254Z,17.30
2022-08-27T04:09:08.643Z,17.30
2022-08-27T04:11:36.587Z,17.30
2022-08-27T04:14:17.364Z,17.30
2022-08-27T04:16:54.392Z,17.30
2022-08-27T04:19:26.935Z,17.30
2022-08-27T04:22:02.945Z,17.40
2022-08-27T04:24:32.160Z,17.40
2022-08-27T04:27:01.020Z,17.40
2022-08-27T04:29:29.085Z,17.40
2022-08-27T04:31:57.735Z,17.40
2022-08-27T04:34:25.483Z,17.40
2022-08-27T04:36:56.778Z,17.40
2022-08-27T04:39:28.730Z,17.40
2022-08-27T04:41:59.325Z,17.40
2022-08-27T04:44:29.765Z,17.40
2022-08-27T04:47:00.883Z,17.40
2022-08-27T04:49:29.310Z,17.40
2022-08-27T04:51:58.702Z,17.50
2022-08-27T04:54:32.897Z,17.40
2022-08-27T04:57:05.190Z,17.40
2022-08-27T04:59:33.126Z,17.40
2022-08-27T05:02:01.544Z,17.40
2022-08-27T05:04:34.339Z,17.50
2022-08-27T05:07:02.160Z,17.50
2022-08-27T05:09:29.567Z,17.50
2022-08-27T05:11:56.991Z,17.50
2022-08-27T05:14:29.871Z,17.50
2022-08-27T05:16:58.782Z,17.50
2022-08-27T05:19:26.986Z,17.50
2022-08-27T05:21:54.843Z,17.50
2022-08-27T05:24:22.947Z,17.40
2022-08-27T05:26:50.796Z,17.40
2022-08-27T05:29:18.480Z,17.40
2022-08-27T05:31:48.452Z,17.40
2022-08-27T05:34:22.056Z,17.40
2022-08-27T05:36:53.561Z,17.50
2022-08-27T05:39:21.201Z,17.40
2022-08-27T05:41:48.631Z,17.50
2022-08-27T05:44:40.714Z,17.50
2022-08-27T05:47:04.942Z,17.50
2022-08-27T05:49:32.531Z,17.50
2022-08-27T05:51:59.988Z,17.50
2022-08-27T05:54:27.342Z,17.50
2022-08-27T05:56:54.673Z,17.50
2022-08-27T05:59:40.374Z,17.50
2022-08-27T06:02:08.136Z,17.50
2022-08-27T06:04:36.601Z,17.60
2022-08-27T06:07:04.353Z,17.50
2022-08-27T06:09:31.817Z,17.50
2022-08-27T06:12:00.829Z,17.60
2022-08-27T06:14:28.811Z,17.60
2022-08-27T06:16:56.762Z,17.60
2022-08-27T06:19:24.241Z,17.60
2022-08-27T06:22:00.972Z,17.60
2022-08-27T06:24:40.140Z,17.60
2022-08-27T06:27:10.034Z,17.60
2022-08-27T06:29:37.506Z,17.70
2022-08-27T06:32:05.559Z,17.70
2022-08-27T06:34:33.930Z,17.80
2022-08-27T06:37:01.279Z,17.80
2022-08-27T06:39:28.666Z,17.80
2022-08-27T06:41:59.548Z,17.80
2022-08-27T06:44:31.404Z,17.90
2022-08-27T06:46:59.833Z,17.90
2022-08-27T06:49:27.369Z,18.00
2022-08-27T06:51:54.864Z,18.00
2022-08-27T06:54:22.249Z,18.00
2022-08-27T06:56:50.075Z,18.10
2022-08-27T06:59:19.087Z,18.10
2022-08-27T07:01:51.165Z,18.10
2022-08-27T07:04:21.853Z,18.10
2022-08-27T07:06:49.726Z,18.10
2022-08-27T07:09:20.521Z,18.10
2022-08-27T07:11:47.976Z,18.10
2022-08-27T07:14:16.128Z,18.10
2022-08-27T07:16:43.523Z,18.20
2022-08-27T07:19:12.732Z,18.10
2022-08-27T07:21:40.317Z,18.10
2022-08-27T07:24:09.125Z,18.10
2022-08-27T07:26:39.495Z,18.10
2022-08-27T07:29:08.869Z,18.10
2022-08-27T07:31:36.396Z,18.10
2022-08-27T07:34:05.650Z,18.10
2022-08-27T07:36:38.584Z,18.10
2022-08-27T07:39:07.121Z,18.10
2022-08-27T07:41:55.379Z,18.10
2022-08-27T07:44:25.981Z,18.10
2022-08-27T07:46:55.838Z,18.20
2022-08-27T07:49:24.347Z,18.20
2022-08-27T07:51:52.373Z,18.30
2022-08-27T07:54:22.858Z,18.30
2022-08-27T07:56:55.819Z,18.30
2022-08-27T07:59:27.312Z,18.30
2022-08-27T08:01:56.552Z,18.30
2022-08-27T08:04:24.618Z,18.40
2022-08-27T08:06:52.530Z,18.50
2022-08-27T08:09:22.227Z,18.60
2022-08-27T08:11:51.221Z,18.70
2022-08-27T08:14:19.633Z,18.80
2022-08-27T08:16:47.914Z,18.90
2022-08-27T08:19:15.724Z,19.00
2022-08-27T08:21:43.489Z,19.10
2022-08-27T08:24:11.210Z,19.10
2022-08-27T08:26:40.629Z,19.10
2022-08-27T08:29:07.967Z,19.20
2022-08-27T08:31:41.701Z,19.30
2022-08-27T08:34:10.298Z,19.30
2022-08-27T08:36:42.342Z,19.60
2022-08-27T08:39:13.683Z,19.80
2022-08-27T08:41:48.438Z,19.90
2022-08-27T08:44:23.508Z,19.90
2022-08-27T08:46:58.350Z,20.20
2022-08-27T08:49:40.609Z,20.10
2022-08-27T08:52:26.471Z,20.10
2022-08-27T08:55:13.824Z,20.20
2022-08-27T08:58:06.023Z,20.30
2022-08-27T09:00:33.716Z,20.40
2022-08-27T09:03:01.078Z,20.60
2022-08-27T09:05:28.465Z,20.60
2022-08-27T09:08:30.933Z,20.70
2022-08-27T09:11:08.659Z,20.90
2022-08-27T09:13:47.910Z,21.00
2022-08-27T09:16:15.395Z,21.10
2022-08-27T09:18:45.355Z,21.10
2022-08-27T09:21:29.147Z,21.10
2022-08-27T09:24:04.934Z,21.00
2022-08-27T09:26:37.142Z,21.10
2022-08-27T09:29:15.883Z,21.00
2022-08-27T09:31:54.583Z,20.90
2022-08-27T09:34:23.695Z,21.00
2022-08-27T09:36:53.431Z,21.00
2022-08-27T09:39:29.212Z,21.10
2022-08-27T09:41:56.765Z,21.10
2022-08-27T09:44:25.443Z,21.20
2022-08-27T09:47:03.606Z,21.30
2022-08-27T09:49:34.446Z,21.60
2022-08-27T09:52:02.241Z,21.60
2022-08-27T09:54:43.403Z,21.60
2022-08-27T09:57:12.924Z,21.80
2022-08-27T09:59:53.147Z,21.60
2022-08-27T10:02:23.834Z,21.60
2022-08-27T10:05:01.224Z,21.80
2022-08-27T10:07:52.530Z,21.90
2022-08-27T10:10:33.201Z,22.00
2022-08-27T10:13:11.037Z,22.10
2022-08-27T10:16:02.098Z,22.20
2022-08-27T10:18:50.291Z,22.30
2022-08-27T10:21:24.102Z,22.30
2022-08-27T10:24:08.532Z,22.00
2022-08-27T10:27:03.213Z,22.20
2022-08-27T10:30:05.263Z,22.20
2022-08-27T10:33:03.739Z,22.20
2022-08-27T10:35:46.839Z,22.30
2022-08-27T10:38:46.318Z,22.40
2022-08-27T10:41:30.821Z,22.40
2022-08-27T10:44:19.022Z,22.10
2022-08-27T10:47:10.541Z,22.10
2022-08-27T10:49:53.641Z,22.20
2022-08-27T10:52:39.066Z,22.10
2022-08-27T10:55:22.876Z,22.20
2022-08-27T10:58:01.201Z,22.30
2022-08-27T11:00:46.420Z,22.40
2022-08-27T11:03:34.596Z,22.40
2022-08-27T11:06:11.509Z,22.00
2022-08-27T11:08:49.932Z,22.20
2022-08-27T11:14:38.572Z,22.20
2022-08-27T11:17:15.071Z,22.40
2022-08-27T11:19:59.168Z,22.80
2022-08-27T11:22:43.596Z,23.10
2022-08-27T11:25:41.385Z,23.20
2022-08-27T11:28:11.421Z,23.40
2022-08-27T11:30:59.787Z,23.70
2022-08-27T11:33:42.706Z,23.70
2022-08-27T11:36:40.139Z,23.50
2022-08-27T11:39:19.182Z,23.80
2022-08-27T11:42:09.818Z,23.50
2022-08-27T11:44:44.030Z,23.80
2022-08-27T11:47:22.941Z,23.80
2022-08-27T11:49:54.411Z,24.10
2022-08-27T11:52:53.763Z,24.00
2022-08-27T11:55:21.042Z,24.10
2022-08-27T11:57:51.584Z,24.10
2022-08-27T12:00:21.817Z,24.30
2022-08-27T12:03:11.691Z,23.90
2022-08-27T12:06:09.578Z,23.90
2022-08-27T12:08:38.074Z,23.90
2022-08-27T12:11:30.927Z,23.90
2022-08-27T12:14:13.117Z,24.00
2022-08-27T12:16:56.098Z,23.90
2022-08-27T12:20:01.641Z,24.00
2022-08-27T12:22:55.054Z,24.10
2022-08-27T12:25:22.872Z,24.30
2022-08-27T12:28:03.066Z,24.30
2022-08-27T12:30:35.251Z,24.80
2022-08-27T12:33:12.412Z,24.80
2022-08-27T12:35:50.498Z,24.70
2022-08-27T12:38:21.948Z,24.90
2022-08-27T12:40:49.595Z,24.80
2022-08-27T12:43:24.833Z,25.00
2022-08-27T12:45:59.965Z,25.10
2022-08-27T12:48:30.325Z,24.60
2022-08-27T12:51:02.482Z,24.60
2022-08-27T12:53:43.773Z,24.50
2022-08-27T12:56:14.314Z,24.50
2022-08-27T12:58:54.068Z,24.30
2022-08-27T13:01:24.377Z,23.90
2022-08-27T13:03:54.228Z,23.80
2022-08-27T13:06:22.851Z,23.80
2022-08-27T13:09:05.320Z,23.70
2022-08-27T13:11:45.927Z,23.50
2022-08-27T13:14:17.011Z,23.70
2022-08-27T13:17:22.690Z,23.60
2022-08-27T13:19:56.065Z,23.70
2022-08-27T13:22:38.633Z,23.70
2022-08-27T13:25:18.556Z,23.80
2022-08-27T13:27:56.674Z,23.70
2022-08-27T13:30:36.060Z,23.50
2022-08-27T13:33:06.550Z,23.40
2022-08-27T13:35:35.052Z,23.40
2022-08-27T13:38:04.394Z,23.50
2022-08-27T13:40:35.489Z,23.90
2022-08-27T13:43:10.442Z,24.30
2022-08-27T13:45:41.579Z,24.40
2022-08-27T13:48:12.749Z,24.40
2022-08-27T13:50:51.003Z,24.30
2022-08-27T13:53:49.364Z,24.60
2022-08-27T13:56:31.782Z,24.60
2022-08-27T13:59:14.975Z,24.60
2022-08-27T14:01:59.413Z,24.60
2022-08-27T14:04:38.350Z,24.80
2022-08-27T14:07:17.464Z,24.90
2022-08-27T14:10:15.668Z,24.90
2022-08-27T14:12:43.553Z,24.90
2022-08-27T14:15:38.510Z,24.70
2022-08-27T14:18:48.008Z,24.70
2022-08-27T14:21:15.790Z,24.80
2022-08-27T14:23:43.099Z,24.70
2022-08-27T14:26:10.540Z,24.70
2022-08-27T14:28:38.001Z,24.60
2022-08-27T14:31:05.524Z,24.70
2022-08-27T14:33:32.940Z,24.80
2022-08-27T14:36:00.849Z,24.60
2022-08-27T14:38:32.501Z,24.50
2022-08-27T14:41:00.236Z,24.60
2022-08-27T14:43:27.778Z,24.60
2022-08-27T14:45:57.042Z,24.60
2022-08-27T14:48:28.832Z,24.60
2022-08-27T14:50:57.864Z,24.50
2022-08-27T14:53:26.672Z,24.30
2022-08-27T14:55:56.049Z,24.50
2022-08-27T14:58:23.358Z,24.60
2022-08-27T15:00:52.086Z,24.70
2022-08-27T15:03:19.874Z,24.50
2022-08-27T15:05:47.189Z,24.30
2022-08-27T15:08:15.841Z,24.10
2022-08-27T15:10:43.489Z,24.10
2022-08-27T15:13:11.445Z,24.10
2022-08-27T15:15:39.622Z,24.00
2022-08-27T15:18:07.444Z,24.00
2022-08-27T15:20:35.649Z,24.10
2022-08-27T15:23:03.684Z,24.00
2022-08-27T15:25:31.180Z,24.00
2022-08-27T15:27:58.573Z,23.90
2022-08-27T15:30:28.794Z,23.80
2022-08-27T15:32:56.869Z,23.70
2022-08-27T15:35:27.134Z,23.70
2022-08-27T15:37:56.697Z,23.70
2022-08-27T15:40:26.893Z,23.50
2022-08-27T15:42:58.470Z,23.30
2022-08-27T15:45:27.539Z,23.30
2022-08-27T15:47:56.269Z,23.10
2022-08-27T15:50:24.558Z,23.20
2022-08-27T15:52:58.180Z,23.20
2022-08-27T15:55:32.259Z,23.10
2022-08-27T15:58:00.999Z,23.00
2022-08-27T16:00:32.500Z,23.00
2022-08-27T16:03:02.851Z,22.90
2022-08-27T16:05:33.715Z,22.90
2022-08-27T16:08:01.069Z,22.80
2022-08-27T16:10:28.461Z,22.80
2022-08-27T16:12:55.873Z,22.70
2022-08-27T16:15:23.314Z,22.70
2022-08-27T16:17:57.337Z,22.60
2022-08-27T16:20:25.788Z,22.50
2022-08-27T16:22:54.021Z,22.50
2022-08-27T16:25:23.302Z,22.40
2022-08-27T16:27:51.998Z,22.40
2022-08-27T16:30:21.618Z,22.30
2022-08-27T16:32:52.138Z,22.30
2022-08-27T16:35:20.715Z,22.10
2022-08-27T16:37:48.286Z,22.00
2022-08-27T16:40:16.253Z,22.00
2022-08-27T16:42:47.265Z,22.00
2022-08-27T16:45:17.330Z,21.90
2022-08-27T16:48:03.227Z,21.90
2022-08-27T16:50:33.504Z,21.80
2022-08-27T16:53:10.777Z,21.70
2022-08-27T16:55:38.182Z,21.70
2022-08-27T16:58:10.748Z,21.70
2022-08-27T17:00:38.935Z,21.60
2022-08-27T17:03:07.969Z,21.60
2022-08-27T17:05:35.476Z,21.50
2022-08-27T17:08:03.855Z,21.50
2022-08-27T17:10:39.365Z,21.50
2022-08-27T17:13:09.127Z,21.40
2022-08-27T17:15:36.716Z,21.40
2022-08-27T17:18:04.360Z,21.30
2022-08-27T17:20:33.462Z,21.30
2022-08-27T17:23:01.993Z,21.20
2022-08-27T17:25:30.365Z,21.20
2022-08-27T17:28:00.236Z,21.20
2022-08-27T17:30:28.257Z,21.20
2022-08-27T17:32:55.762Z,21.20
2022-08-27T17:35:23.073Z,21.10
2022-08-27T17:37:50.530Z,21.10
2022-08-27T17:40:17.949Z,21.00
2022-08-27T17:42:45.330Z,21.00
2022-08-27T17:45:13.114Z,21.00
2022-08-27T17:47:40.482Z,20.90
2022-08-27T17:50:09.237Z,20.90
2022-08-27T17:52:40.045Z,20.90
2022-08-27T17:55:07.845Z,20.80
2022-08-27T17:57:40.982Z,20.80
2022-08-27T18:00:10.978Z,20.70
2022-08-27T18:02:42.304Z,20.70
2022-08-27T18:05:13.109Z,20.70
2022-08-27T18:07:42.778Z,20.70
2022-08-27T18:10:13.711Z,20.60
2022-08-27T18:12:42.522Z,20.60
2022-08-27T18:15:26.810Z,20.60
2022-08-27T18:17:55.364Z,20.60
2022-08-27T18:20:26.299Z,20.60
2022-08-27T18:22:54.147Z,20.50
2022-08-27T18:25:25.625Z,20.50
2022-08-27T18:27:56.863Z,20.50
2022-08-27T18:30:24.940Z,20.50
2022-08-27T18:32:52.463Z,20.50
2022-08-27T18:35:22.879Z,20.40
2022-08-27T18:37:50.874Z,20.40
2022-08-27T18:40:23.927Z,20.40
2022-08-27T18:42:52.147Z,20.40
2022-08-27T18:45:25.149Z,20.30
2022-08-27T18:47:55.454Z,20.30
2022-08-27T18:50:23.040Z,20.30
2022-08-27T18:52:52.667Z,20.30
2022-08-27T18:55:25.606Z,20.30
2022-08-27T18:57:52.925Z,20.30
2022-08-27T19:00:20.499Z,20.30
2022-08-27T19:02:52.541Z,20.30
2022-08-27T19:05:26.680Z,20.20
2022-08-27T19:07:55.219Z,20.20
2022-08-27T19:10:22.945Z,20.20
2022-08-27T19:12:50.591Z,20.10
2022-08-27T19:15:18.036Z,20.10
2022-08-27T19:17:49.309Z,20.10
2022-08-27T19:20:18.540Z,20.10
2022-08-27T19:22:47.166Z,20.00
2022-08-27T19:25:15.586Z,20.00
2022-08-27T19:27:44.234Z,20.00
2022-08-27T19:30:12.982Z,20.00
2022-08-27T19:32:40.412Z,20.00
2022-08-27T19:35:08.653Z,20.00
2022-08-27T19:37:41.895Z,19.90
2022-08-27T19:40:11.269Z,20.00
2022-08-27T19:42:40.080Z,19.90
2022-08-27T19:45:08.537Z,19.90
2022-08-27T19:47:36.949Z,19.90
2022-08-27T19:50:05.386Z,19.90
2022-08-27T19:52:32.782Z,19.90
2022-08-27T19:55:15.285Z,19.90
2022-08-27T19:57:44.334Z,19.90
2022-08-27T20:00:14.136Z,19.80
2022-08-27T20:02:41.516Z,19.80
2022-08-27T20:05:18.329Z,19.80
2022-08-27T20:07:51.174Z,19.80
2022-08-27T20:10:21.591Z,19.80
2022-08-27T20:12:49.995Z,19.80
2022-08-27T20:15:19.483Z,19.80
2022-08-27T20:17:48.162Z,19.70
2022-08-27T20:20:22.822Z,19.80
2022-08-27T20:22:50.479Z,19.70
2022-08-27T20:25:18.184Z,19.70
2022-08-27T20:27:46.017Z,19.70
2022-08-27T20:30:15.202Z,19.70
2022-08-27T20:32:43.164Z,19.60
2022-08-27T20:35:11.065Z,19.60
2022-08-27T20:37:42.285Z,19.60
2022-08-27T20:40:32.674Z,19.60
2022-08-27T20:43:01.228Z,19.60
2022-08-27T20:45:28.998Z,19.60
2022-08-27T20:47:59.732Z,19.60
2022-08-27T20:50:27.147Z,19.60
2022-08-27T20:52:54.659Z,19.60
2022-08-27T20:55:23.621Z,19.60
2022-08-27T20:58:09.950Z,19.50
2022-08-27T21:00:40.549Z,19.50
2022-08-27T21:03:10.263Z,19.50
2022-08-27T21:05:38.303Z,19.50
2022-08-27T21:08:06.930Z,19.50
2022-08-27T21:10:35.165Z,19.50
2022-08-27T21:13:05.138Z,19.50
2022-08-27T21:15:33.554Z,19.50
2022-08-27T21:18:00.965Z,19.50
2022-08-27T21:20:29.796Z,19.50
2022-08-27T21:22:57.906Z,19.50
2022-08-27T21:25:26.913Z,19.50
2022-08-27T21:27:55.577Z,19.50
2022-08-27T21:30:24.573Z,19.40
2022-08-27T21:32:55.731Z,19.40
2022-08-27T21:35:26.726Z,19.40
2022-08-27T21:38:00.383Z,19.40
2022-08-27T21:40:28.483Z,19.40
2022-08-27T21:42:57.115Z,19.40
2022-08-27T21:45:24.931Z,19.30
2022-08-27T21:47:52.327Z,19.30
2022-08-27T21:50:20.729Z,19.20
2022-08-27T21:52:48.214Z,19.20
2022-08-27T21:55:16.469Z,19.10
2022-08-27T21:57:43.818Z,19.10
2022-08-27T22:00:39.024Z,19.10
2022-08-27T22:03:10.110Z,19.10
2022-08-27T22:05:40.240Z,19.00
2022-08-27T22:08:09.710Z,19.00
2022-08-27T22:10:38.693Z,18.90
2022-08-27T22:13:07.155Z,18.90
2022-08-27T22:15:34.585Z,18.90
2022-08-27T22:18:02.340Z,18.80
2022-08-27T22:20:30.267Z,18.80
2022-08-27T22:22:58.784Z,18.70
2022-08-27T22:25:27.891Z,18.70
2022-08-27T22:27:55.371Z,18.70
2022-08-27T22:30:23.109Z,18.70
2022-08-27T22:32:50.634Z,18.60
2022-08-27T22:35:18.894Z,18.60
2022-08-27T22:37:47.238Z,18.60
2022-08-27T22:40:20.221Z,18.50
2022-08-27T22:42:49.423Z,18.50
2022-08-27T22:45:18.190Z,18.40
2022-08-27T22:47:46.102Z,18.50
2022-08-27T22:50:13.810Z,18.40
2022-08-27T22:52:44.374Z,18.30
2022-08-27T22:55:14.758Z,18.30
2022-08-27T22:57:42.152Z,18.30
2022-08-27T23:00:20.085Z,18.20
2022-08-27T23:02:47.732Z,18.20
2022-08-27T23:05:16.425Z,18.20
2022-08-27T23:07:44.842Z,18.10
2022-08-27T23:10:19.644Z,18.10
2022-08-27T23:12:47.403Z,18.10
2022-08-27T23:15:17.198Z,18.10
2022-08-27T23:17:44.576Z,18.00
2022-08-27T23:20:13.270Z,18.00
2022-08-27T23:22:40.600Z,18.00
2022-08-27T23:25:28.872Z,17.90
2022-08-27T23:27:59.639Z,17.90
2022-08-27T23:30:28.192Z,17.90
2022-08-27T23:32:56.799Z,17.80
2022-08-27T23:35:26.117Z,17.80
2022-08-27T23:37:53.734Z,17.70
2022-08-27T23:40:22.043Z,17.70
2022-08-27T23:42:49.907Z,17.70
2022-08-27T23:45:22.615Z,17.70
2022-08-27T23:47:49.971Z,17.60
2022-08-27T23:50:17.432Z,17.60
2022-08-27T23:52:44.979Z,17.60
2022-08-27T23:55:12.714Z,17.60
2022-08-27T23:57:40.569Z,17.60
